sensor_id;sensor_type;location;lat;lon;timestamp;pressure;altitude;pressure_sealevel;temperature;humidity
37238;BME280;23129;49.662;8.448;2023-02-10T00:02:14;102726.78;;;-1.81;100.00
37238;BME280;23129;49.662;8.448;2023-02-10T00:04:43;102729.25;;;-1.83;100.00
37238;BME280;23129;49.662;8.448;2023-02-10T00:07:13;102726.50;;;-1.86;100.00
37238;BME280;23129;49.662;8.448;2023-02-10T00:09:41;102728.13;;;-1.88;100.00
37238;BME280;23129;49.662;8.448;2023-02-10T00:12:10;102726.31;;;-1.89;100.00
37238;BME280;23129;49.662;8.448;2023-02-10T00:14:39;102726.13;;;-1.92;100.00
37238;BME280;23129;49.662;8.448;2023-02-10T00:17:07;102734.47;;;-1.96;100.00
37238;BME280;23129;49.662;8.448;2023-02-10T00:19:36;102739.44;;;-1.99;100.00
37238;BME280;23129;49.662;8.448;2023-02-10T00:22:04;102754.50;;;-2.05;100.00
37238;BME280;23129;49.662;8.448;2023-02-10T00:24:34;102752.34;;;-2.12;100.00
37238;BME280;23129;49.662;8.448;2023-02-10T00:27:03;102753.75;;;-2.17;100.00
37238;BME280;23129;49.662;8.448;2023-02-10T00:29:31;102756.72;;;-2.24;100.00
37238;BME280;23129;49.662;8.448;2023-02-10T00:32:00;102751.38;;;-2.27;100.00
37238;BME280;23129;49.662;8.448;2023-02-10T00:34:29;102751.19;;;-2.31;100.00
37238;BME280;23129;49.662;8.448;2023-02-10T00:36:58;102755.19;;;-2.36;100.00
37238;BME280;23129;49.662;8.448;2023-02-10T00:39:26;102753.38;;;-2.37;100.00
37238;BME280;23129;49.662;8.448;2023-02-10T00:41:56;102756.88;;;-2.36;100.00
37238;BME280;23129;49.662;8.448;2023-02-10T00:44:24;102762.97;;;-2.34;100.00
37238;BME280;23129;49.662;8.448;2023-02-10T00:46:52;102766.44;;;-2.34;100.00
37238;BME280;23129;49.662;8.448;2023-02-10T00:49:21;102774.94;;;-2.35;100.00
37238;BME280;23129;49.662;8.448;2023-02-10T00:51:49;102783.28;;;-2.39;100.00
37238;BME280;23129;49.662;8.448;2023-02-10T00:54:18;102783.06;;;-2.42;100.00
37238;BME280;23129;49.662;8.448;2023-02-10T00:56:46;102778.63;;;-2.44;100.00
37238;BME280;23129;49.662;8.448;2023-02-10T00:59:17;102791.38;;;-2.46;100.00
37238;BME280;23129;49.662;8.448;2023-02-10T01:01:47;102791.28;;;-2.47;100.00
37238;BME280;23129;49.662;8.448;2023-02-10T01:04:16;102799.88;;;-2.47;100.00
37238;BME280;23129;49.662;8.448;2023-02-10T01:06:44;102799.88;;;-2.47;100.00
37238;BME280;23129;49.662;8.448;2023-02-10T01:09:12;102792.97;;;-2.48;100.00
37238;BME280;23129;49.662;8.448;2023-02-10T01:11:41;102805.81;;;-2.48;100.00
37238;BME280;23129;49.662;8.448;2023-02-10T01:14:10;102798.09;;;-2.48;100.00
37238;BME280;23129;49.662;8.448;2023-02-10T01:16:41;102804.13;;;-2.47;100.00
37238;BME280;23129;49.662;8.448;2023-02-10T01:19:09;102799.00;;;-2.47;100.00
37238;BME280;23129;49.662;8.448;2023-02-10T01:21:38;102793.84;;;-2.47;100.00
37238;BME280;23129;49.662;8.448;2023-02-10T01:24:06;102801.44;;;-2.49;100.00
37238;BME280;23129;49.662;8.448;2023-02-10T01:26:35;102797.91;;;-2.51;100.00
37238;BME280;23129;49.662;8.448;2023-02-10T01:29:04;102806.38;;;-2.52;100.00
37238;BME280;23129;49.662;8.448;2023-02-10T01:31:32;102803.06;;;-2.51;100.00
37238;BME280;23129;49.662;8.448;2023-02-10T01:34:05;102801.44;;;-2.49;100.00
37238;BME280;23129;49.662;8.448;2023-02-10T01:36:36;102803.25;;;-2.48;100.00
37238;BME280;23129;49.662;8.448;2023-02-10T01:39:05;102806.78;;;-2.46;100.00
37238;BME280;23129;49.662;8.448;2023-02-10T01:41:33;102804.31;;;-2.44;100.00
37238;BME280;23129;49.662;8.448;2023-02-10T01:44:04;102798.50;;;-2.42;100.00
37238;BME280;23129;49.662;8.448;2023-02-10T01:46:34;102794.13;;;-2.43;100.00
37238;BME280;23129;49.662;8.448;2023-02-10T01:49:06;102794.25;;;-2.41;100.00
37238;BME280;23129;49.662;8.448;2023-02-10T01:51:41;102791.66;;;-2.41;100.00
37238;BME280;23129;49.662;8.448;2023-02-10T01:54:13;102796.88;;;-2.40;100.00
37238;BME280;23129;49.662;8.448;2023-02-10T01:56:42;102807.16;;;-2.40;100.00
37238;BME280;23129;49.662;8.448;2023-02-10T01:59:13;102799.38;;;-2.41;100.00
37238;BME280;23129;49.662;8.448;2023-02-10T02:01:42;102803.63;;;-2.42;100.00
37238;BME280;23129;49.662;8.448;2023-02-10T02:04:12;102804.41;;;-2.43;100.00
37238;BME280;23129;49.662;8.448;2023-02-10T02:06:41;102799.06;;;-2.46;100.00
37238;BME280;23129;49.662;8.448;2023-02-10T02:09:10;102800.75;;;-2.46;100.00
37238;BME280;23129;49.662;8.448;2023-02-10T02:11:44;102803.25;;;-2.48;100.00
37238;BME280;23129;49.662;8.448;2023-02-10T02:14:29;102804.81;;;-2.50;100.00
37238;BME280;23129;49.662;8.448;2023-02-10T02:17:09;102810.66;;;-2.53;100.00
37238;BME280;23129;49.662;8.448;2023-02-10T02:20:17;102812.94;;;-2.57;100.00
37238;BME280;23129;49.662;8.448;2023-02-10T02:23:45;102828.72;;;-2.64;100.00
37238;BME280;23129;49.662;8.448;2023-02-10T02:26:36;102832.88;;;-2.66;100.00
37238;BME280;23129;49.662;8.448;2023-02-10T02:32:25;102825.78;;;-2.70;100.00
37238;BME280;23129;49.662;8.448;2023-02-10T02:35:01;102835.84;;;-2.73;100.00
37238;BME280;23129;49.662;8.448;2023-02-10T02:37:32;102835.66;;;-2.77;100.00
37238;BME280;23129;49.662;8.448;2023-02-10T02:40:04;102835.66;;;-2.77;100.00
37238;BME280;23129;49.662;8.448;2023-02-10T02:42:33;102837.22;;;-2.79;100.00
37238;BME280;23129;49.662;8.448;2023-02-10T02:45:05;102839.78;;;-2.79;100.00
37238;BME280;23129;49.662;8.448;2023-02-10T02:48:14;102836.44;;;-2.78;100.00
37238;BME280;23129;49.662;8.448;2023-02-10T02:50:52;102843.56;;;-2.73;100.00
37238;BME280;23129;49.662;8.448;2023-02-10T02:53:29;102853.03;;;-2.72;100.00
37238;BME280;23129;49.662;8.448;2023-02-10T02:56:10;102844.56;;;-2.71;100.00
37238;BME280;23129;49.662;8.448;2023-02-10T02:58:50;102848.81;;;-2.72;100.00
37238;BME280;23129;49.662;8.448;2023-02-10T03:01:28;102847.88;;;-2.72;100.00
37238;BME280;23129;49.662;8.448;2023-02-10T03:03:59;102853.03;;;-2.72;100.00
37238;BME280;23129;49.662;8.448;2023-02-10T03:06:32;102853.63;;;-2.77;100.00
37238;BME280;23129;49.662;8.448;2023-02-10T03:09:00;102850.84;;;-2.80;100.00
37238;BME280;23129;49.662;8.448;2023-02-10T03:11:29;102852.44;;;-2.82;100.00
37238;BME280;23129;49.662;8.448;2023-02-10T03:13:57;102852.44;;;-2.82;100.00
37238;BME280;23129;49.662;8.448;2023-02-10T03:16:26;102852.44;;;-2.82;100.00
37238;BME280;23129;49.662;8.448;2023-02-10T03:18:54;102846.41;;;-2.82;100.00
37238;BME280;23129;49.662;8.448;2023-02-10T03:21:24;102846.31;;;-2.84;100.00
37238;BME280;23129;49.662;8.448;2023-02-10T03:23:53;102845.53;;;-2.83;100.00
37238;BME280;23129;49.662;8.448;2023-02-10T03:26:21;102848.91;;;-2.84;100.00
37238;BME280;23129;49.662;8.448;2023-02-10T03:28:49;102846.31;;;-2.84;100.00
37238;BME280;23129;49.662;8.448;2023-02-10T03:31:18;102845.31;;;-2.86;100.00
37238;BME280;23129;49.662;8.448;2023-02-10T03:33:46;102844.44;;;-2.86;100.00
37238;BME280;23129;49.662;8.448;2023-02-10T03:36:15;102841.75;;;-2.88;100.00
37238;BME280;23129;49.662;8.448;2023-02-10T03:38:44;102848.50;;;-2.90;100.00
37238;BME280;23129;49.662;8.448;2023-02-10T03:41:13;102843.16;;;-2.93;100.00
37238;BME280;23129;49.662;8.448;2023-02-10T03:43:42;102847.38;;;-2.93;100.00
37238;BME280;23129;49.662;8.448;2023-02-10T03:46:10;102851.63;;;-2.94;100.00
37238;BME280;23129;49.662;8.448;2023-02-10T03:48:39;102852.44;;;-2.95;100.00
37238;BME280;23129;49.662;8.448;2023-02-10T03:51:08;102851.41;;;-2.97;100.00
37238;BME280;23129;49.662;8.448;2023-02-10T03:53:37;102851.22;;;-3.00;100.00
37238;BME280;23129;49.662;8.448;2023-02-10T03:56:07;102863.06;;;-3.02;100.00
37238;BME280;23129;49.662;8.448;2023-02-10T03:58:36;102862.09;;;-3.04;100.00
37238;BME280;23129;49.662;8.448;2023-02-10T04:01:16;102861.88;;;-3.07;100.00
37238;BME280;23129;49.662;8.448;2023-02-10T04:03:45;102864.44;;;-3.07;100.00
37238;BME280;23129;49.662;8.448;2023-02-10T04:06:14;102855.94;;;-3.06;100.00
37238;BME280;23129;49.662;8.448;2023-02-10T04:08:42;102857.91;;;-3.02;100.00
37238;BME280;23129;49.662;8.448;2023-02-10T04:11:12;102853.03;;;-2.99;100.00
37238;BME280;23129;49.662;8.448;2023-02-10T04:13:40;102847.97;;;-2.97;100.00
37238;BME280;23129;49.662;8.448;2023-02-10T04:16:10;102853.22;;;-2.96;100.00
37238;BME280;23129;49.662;8.448;2023-02-10T04:18:40;102853.22;;;-2.96;100.00
37238;BME280;23129;49.662;8.448;2023-02-10T04:21:11;102851.41;;;-2.97;100.00
37238;BME280;23129;49.662;8.448;2023-02-10T04:23:39;102878.69;;;-2.99;100.00
37238;BME280;23129;49.662;8.448;2023-02-10T04:26:08;102882.91;;;-3.00;100.00
37238;BME280;23129;49.662;8.448;2023-02-10T04:28:38;102871.75;;;-3.00;100.00
37238;BME280;23129;49.662;8.448;2023-02-10T04:31:06;102885.59;;;-2.98;100.00
37238;BME280;23129;49.662;8.448;2023-02-10T04:33:37;102885.59;;;-2.98;100.00
37238;BME280;23129;49.662;8.448;2023-02-10T04:36:06;102886.59;;;-2.96;100.00
37238;BME280;23129;49.662;8.448;2023-02-10T04:38:35;102887.56;;;-2.94;100.00
37238;BME280;23129;49.662;8.448;2023-02-10T04:41:04;102889.47;;;-2.91;100.00
37238;BME280;23129;49.662;8.448;2023-02-10T04:43:33;102891.34;;;-2.89;100.00
37238;BME280;23129;49.662;8.448;2023-02-10T04:46:03;102887.97;;;-2.88;100.00
37238;BME280;23129;49.662;8.448;2023-02-10T04:48:32;102886.41;;;-2.86;100.00
37238;BME280;23129;49.662;8.448;2023-02-10T04:51:07;102902.81;;;-2.84;100.00
37238;BME280;23129;49.662;8.448;2023-02-10T04:53:35;102901.22;;;-2.82;100.00
37238;BME280;23129;49.662;8.448;2023-02-10T04:56:05;102900.47;;;-2.81;100.00
37238;BME280;23129;49.662;8.448;2023-02-10T04:58:33;102902.22;;;-2.80;100.00
37238;BME280;23129;49.662;8.448;2023-02-10T05:01:03;102904.00;;;-2.79;100.00
37238;BME280;23129;49.662;8.448;2023-02-10T05:03:32;102909.03;;;-2.80;100.00
37238;BME280;23129;49.662;8.448;2023-02-10T05:06:06;102912.50;;;-2.80;100.00
37238;BME280;23129;49.662;8.448;2023-02-10T05:08:35;102909.94;;;-2.80;100.00
37238;BME280;23129;49.662;8.448;2023-02-10T05:11:08;102912.50;;;-2.80;100.00
37238;BME280;23129;49.662;8.448;2023-02-10T05:13:37;102910.72;;;-2.81;100.00
37238;BME280;23129;49.662;8.448;2023-02-10T05:16:10;102920.13;;;-2.81;100.00
37238;BME280;23129;49.662;8.448;2023-02-10T05:18:39;102916.63;;;-2.82;100.00
37238;BME280;23129;49.662;8.448;2023-02-10T05:21:08;102921.00;;;-2.81;100.00
37238;BME280;23129;49.662;8.448;2023-02-10T05:23:38;102921.00;;;-2.81;100.00
37238;BME280;23129;49.662;8.448;2023-02-10T05:26:07;102928.50;;;-2.84;100.00
37238;BME280;23129;49.662;8.448;2023-02-10T05:28:36;102925.94;;;-2.84;100.00
37238;BME280;23129;49.662;8.448;2023-02-10T05:31:04;102916.53;;;-2.83;100.00
37238;BME280;23129;49.662;8.448;2023-02-10T05:33:35;102913.84;;;-2.85;100.00
37238;BME280;23129;49.662;8.448;2023-02-10T05:36:04;102919.19;;;-2.82;100.00
37238;BME280;23129;49.662;8.448;2023-02-10T05:38:33;102925.53;;;-2.77;100.00
37238;BME280;23129;49.662;8.448;2023-02-10T05:41:02;102927.63;;;-2.71;100.00
37238;BME280;23129;49.662;8.448;2023-02-10T05:43:31;102920.22;;;-2.66;100.00
37238;BME280;23129;49.662;8.448;2023-02-10T05:45:59;102926.56;;;-2.61;100.00
37238;BME280;23129;49.662;8.448;2023-02-10T05:48:28;102926.19;;;-2.54;100.00
37238;BME280;23129;49.662;8.448;2023-02-10T05:50:58;102927.47;;;-2.47;100.00
37238;BME280;23129;49.662;8.448;2023-02-10T05:53:27;102922.72;;;-2.41;100.00
37238;BME280;23129;49.662;8.448;2023-02-10T05:55:55;102928.25;;;-2.35;100.00
37238;BME280;23129;49.662;8.448;2023-02-10T05:58:24;102927.78;;;-2.30;100.00
37238;BME280;23129;49.662;8.448;2023-02-10T06:00:55;102926.38;;;-2.24;100.00
37238;BME280;23129;49.662;8.448;2023-02-10T06:03:24;102928.16;;;-2.23;100.00
37238;BME280;23129;49.662;8.448;2023-02-10T06:05:52;102939.22;;;-2.24;100.00
37238;BME280;23129;49.662;8.448;2023-02-10T06:08:22;102942.78;;;-2.22;100.00
37238;BME280;23129;49.662;8.448;2023-02-10T06:10:51;102942.22;;;-2.18;100.00
37238;BME280;23129;49.662;8.448;2023-02-10T06:13:20;102949.31;;;-2.14;100.00
37238;BME280;23129;49.662;8.448;2023-02-10T06:15:48;102959.13;;;-2.09;100.00
37238;BME280;23129;49.662;8.448;2023-02-10T06:18:17;102955.94;;;-2.04;100.00
37238;BME280;23129;49.662;8.448;2023-02-10T06:20:46;102952.88;;;-1.99;100.00
37238;BME280;23129;49.662;8.448;2023-02-10T06:23:15;102955.84;;;-1.93;100.00
37238;BME280;23129;49.662;8.448;2023-02-10T06:25:45;102958.72;;;-1.88;100.00
37238;BME280;23129;49.662;8.448;2023-02-10T06:28:14;102956.41;;;-1.84;100.00
37238;BME280;23129;49.662;8.448;2023-02-10T06:30:43;102959.19;;;-1.80;100.00
37238;BME280;23129;49.662;8.448;2023-02-10T06:33:11;102961.19;;;-1.76;100.00
37238;BME280;23129;49.662;8.448;2023-02-10T06:35:40;102953.66;;;-1.73;100.00
37238;BME280;23129;49.662;8.448;2023-02-10T06:38:08;102951.34;;;-1.69;100.00
37238;BME280;23129;49.662;8.448;2023-02-10T06:40:37;102959.38;;;-1.64;100.00
37238;BME280;23129;49.662;8.448;2023-02-10T06:43:07;102958.56;;;-1.63;100.00
37238;BME280;23129;49.662;8.448;2023-02-10T06:45:35;102963.78;;;-1.62;100.00
37238;BME280;23129;49.662;8.448;2023-02-10T06:48:04;102963.09;;;-1.59;100.00
37238;BME280;23129;49.662;8.448;2023-02-10T06:50:33;102963.28;;;-1.56;100.00
37238;BME280;23129;49.662;8.448;2023-02-10T06:53:01;102962.00;;;-1.49;100.00
37238;BME280;23129;49.662;8.448;2023-02-10T06:55:30;102960.50;;;-1.46;100.00
37238;BME280;23129;49.662;8.448;2023-02-10T06:57:59;102962.28;;;-1.45;100.00
37238;BME280;23129;49.662;8.448;2023-02-10T07:00:29;102964.16;;;-1.42;100.00
37238;BME280;23129;49.662;8.448;2023-02-10T07:02:59;102971.19;;;-1.40;100.00
37238;BME280;23129;49.662;8.448;2023-02-10T07:05:27;102961.06;;;-1.36;100.00
37238;BME280;23129;49.662;8.448;2023-02-10T07:07:56;102970.69;;;-1.34;100.00
37238;BME280;23129;49.662;8.448;2023-02-10T07:10:27;102969.06;;;-1.32;100.00
37238;BME280;23129;49.662;8.448;2023-02-10T07:12:55;102961.44;;;-1.30;100.00
37238;BME280;23129;49.662;8.448;2023-02-10T07:15:24;102977.16;;;-1.26;100.00
37238;BME280;23129;49.662;8.448;2023-02-10T07:17:53;102970.34;;;-1.25;100.00
37238;BME280;23129;49.662;8.448;2023-02-10T07:20:22;102965.97;;;-1.26;100.00
37238;BME280;23129;49.662;8.448;2023-02-10T07:22:50;102966.97;;;-1.24;100.00
37238;BME280;23129;49.662;8.448;2023-02-10T07:25:19;102961.00;;;-1.23;100.00
37238;BME280;23129;49.662;8.448;2023-02-10T07:27:48;102955.09;;;-1.22;100.00
37238;BME280;23129;49.662;8.448;2023-02-10T07:30:16;102960.25;;;-1.22;100.00
37238;BME280;23129;49.662;8.448;2023-02-10T07:32:45;102958.63;;;-1.20;100.00
37238;BME280;23129;49.662;8.448;2023-02-10T07:35:15;102968.22;;;-1.18;100.00
37238;BME280;23129;49.662;8.448;2023-02-10T07:37:43;102963.97;;;-1.17;100.00
37238;BME280;23129;49.662;8.448;2023-02-10T07:40:12;102959.00;;;-1.14;100.00
37238;BME280;23129;49.662;8.448;2023-02-10T07:42:41;102960.00;;;-1.12;100.00
37238;BME280;23129;49.662;8.448;2023-02-10T07:45:22;102959.38;;;-1.08;100.00
37238;BME280;23129;49.662;8.448;2023-02-10T07:47:50;102959.53;;;-1.05;100.00
37238;BME280;23129;49.662;8.448;2023-02-10T07:50:20;102959.72;;;-1.02;100.00
37238;BME280;23129;49.662;8.448;2023-02-10T07:52:49;102971.13;;;-0.98;100.00
37238;BME280;23129;49.662;8.448;2023-02-10T07:55:17;102977.44;;;-0.93;100.00
37238;BME280;23129;49.662;8.448;2023-02-10T07:57:46;102969.19;;;-0.87;100.00
37238;BME280;23129;49.662;8.448;2023-02-10T08:00:15;102978.16;;;-0.81;100.00
37238;BME280;23129;49.662;8.448;2023-02-10T08:02:43;102958.53;;;-0.79;100.00
37238;BME280;23129;49.662;8.448;2023-02-10T08:05:12;102954.09;;;-0.81;100.00
37238;BME280;23129;49.662;8.448;2023-02-10T08:07:41;102966.97;;;-0.81;100.00
37238;BME280;23129;49.662;8.448;2023-02-10T08:10:10;102961.03;;;-0.80;100.00
37238;BME280;23129;49.662;8.448;2023-02-10T08:12:38;102962.81;;;-0.79;100.00
37238;BME280;23129;49.662;8.448;2023-02-10T08:15:08;102970.72;;;-0.76;100.00
37238;BME280;23129;49.662;8.448;2023-02-10T08:17:36;102969.19;;;-0.73;100.00
37238;BME280;23129;49.662;8.448;2023-02-10T08:20:06;102971.25;;;-0.67;100.00
37238;BME280;23129;49.662;8.448;2023-02-10T08:22:35;102979.09;;;-0.51;100.00
37238;BME280;23129;49.662;8.448;2023-02-10T08:25:06;102985.94;;;-0.36;100.00
37238;BME280;23129;49.662;8.448;2023-02-10T08:27:34;102997.94;;;-0.22;100.00
37238;BME280;23129;49.662;8.448;2023-02-10T08:30:03;103003.97;;;-0.07;100.00
37238;BME280;23129;49.662;8.448;2023-02-10T08:32:33;103007.59;;;0.12;100.00
37238;BME280;23129;49.662;8.448;2023-02-10T08:35:01;103015.41;;;0.28;100.00
37238;BME280;23129;49.662;8.448;2023-02-10T08:37:29;103008.31;;;0.40;100.00
37238;BME280;23129;49.662;8.448;2023-02-10T08:39:58;103006.25;;;0.50;100.00
37238;BME280;23129;49.662;8.448;2023-02-10T08:42:28;103009.16;;;0.56;100.00
37238;BME280;23129;49.662;8.448;2023-02-10T08:44:56;103007.06;;;0.65;100.00
37238;BME280;23129;49.662;8.448;2023-02-10T08:47:25;103005.88;;;0.75;100.00
37238;BME280;23129;49.662;8.448;2023-02-10T08:49:53;103007.19;;;0.83;100.00
37238;BME280;23129;49.662;8.448;2023-02-10T08:52:22;103010.97;;;0.89;100.00
37238;BME280;23129;49.662;8.448;2023-02-10T08:54:51;103012.28;;;0.98;100.00
37238;BME280;23129;49.662;8.448;2023-02-10T08:57:20;103014.41;;;1.05;100.00
37238;BME280;23129;49.662;8.448;2023-02-10T08:59:49;103007.75;;;1.10;100.00
37238;BME280;23129;49.662;8.448;2023-02-10T09:02:18;103015.03;;;1.17;100.00
37238;BME280;23129;49.662;8.448;2023-02-10T09:04:46;103027.41;;;1.23;100.00
37238;BME280;23129;49.662;8.448;2023-02-10T09:07:30;103027.47;;;1.24;100.00
37238;BME280;23129;49.662;8.448;2023-02-10T09:09:59;103036.34;;;1.29;100.00
37238;BME280;23129;49.662;8.448;2023-02-10T09:12:27;103025.34;;;1.33;100.00
37238;BME280;23129;49.662;8.448;2023-02-10T09:14:57;103031.34;;;1.32;100.00
37238;BME280;23129;49.662;8.448;2023-02-10T09:17:26;103037.97;;;1.27;100.00
37238;BME280;23129;49.662;8.448;2023-02-10T09:19:55;103032.78;;;1.27;100.00
37238;BME280;23129;49.662;8.448;2023-02-10T09:22:23;103034.72;;;1.31;100.00
37238;BME280;23129;49.662;8.448;2023-02-10T09:24:52;103041.28;;;1.41;100.00
37238;BME280;23129;49.662;8.448;2023-02-10T09:27:21;103036.56;;;1.50;100.00
37238;BME280;23129;49.662;8.448;2023-02-10T09:29:49;103030.81;;;1.56;100.00
37238;BME280;23129;49.662;8.448;2023-02-10T09:32:19;103032.59;;;1.57;100.00
37238;BME280;23129;49.662;8.448;2023-02-10T09:34:47;103037.91;;;1.60;100.00
37238;BME280;23129;49.662;8.448;2023-02-10T09:37:16;103036.63;;;1.68;100.00
37238;BME280;23129;49.662;8.448;2023-02-10T09:39:44;103031.75;;;1.74;100.00
37238;BME280;23129;49.662;8.448;2023-02-10T09:42:23;103034.69;;;1.82;100.00
37238;BME280;23129;49.662;8.448;2023-02-10T09:45:01;103022.00;;;1.87;100.00
37238;BME280;23129;49.662;8.448;2023-02-10T09:47:41;103034.28;;;1.91;100.00
37238;BME280;23129;49.662;8.448;2023-02-10T09:50:40;103025.88;;;1.95;100.00
37238;BME280;23129;49.662;8.448;2023-02-10T09:53:13;103022.75;;;2.02;100.00
37238;BME280;23129;49.662;8.448;2023-02-10T09:55:48;103031.69;;;2.09;100.00
37238;BME280;23129;49.662;8.448;2023-02-10T09:58:23;103033.84;;;2.17;100.00
37238;BME280;23129;49.662;8.448;2023-02-10T10:00:58;103029.84;;;2.24;100.00
37238;BME280;23129;49.662;8.448;2023-02-10T10:03:39;103019.72;;;2.28;100.00
37238;BME280;23129;49.662;8.448;2023-02-10T10:06:21;103022.31;;;2.28;100.00
37238;BME280;23129;49.662;8.448;2023-02-10T10:09:00;103018.31;;;2.35;100.00
37238;BME280;23129;49.662;8.448;2023-02-10T10:11:36;103021.28;;;2.43;100.00
37238;BME280;23129;49.662;8.448;2023-02-10T10:14:17;103021.56;;;2.49;100.00
37238;BME280;23129;49.662;8.448;2023-02-10T10:20:02;103032.91;;;2.70;100.00
37238;BME280;23129;49.662;8.448;2023-02-10T10:22:46;103028.28;;;2.83;100.00
37238;BME280;23129;49.662;8.448;2023-02-10T10:25:50;103027.22;;;2.97;100.00
37238;BME280;23129;49.662;8.448;2023-02-10T10:28:31;103026.00;;;3.08;100.00
37238;BME280;23129;49.662;8.448;2023-02-10T10:31:11;103033.16;;;3.14;100.00
37238;BME280;23129;49.662;8.448;2023-02-10T10:33:49;103030.69;;;3.17;100.00
37238;BME280;23129;49.662;8.448;2023-02-10T10:36:23;103017.09;;;3.23;100.00
37238;BME280;23129;49.662;8.448;2023-02-10T10:39:00;103026.94;;;3.30;100.00
37238;BME280;23129;49.662;8.448;2023-02-10T10:41:31;103032.84;;;3.47;100.00
37238;BME280;23129;49.662;8.448;2023-02-10T10:44:03;103022.38;;;3.64;100.00
37238;BME280;23129;49.662;8.448;2023-02-10T10:46:38;103018.09;;;3.86;100.00
37238;BME280;23129;49.662;8.448;2023-02-10T10:49:09;103018.00;;;4.05;100.00
37238;BME280;23129;49.662;8.448;2023-02-10T10:51:38;103015.19;;;4.22;100.00
37238;BME280;23129;49.662;8.448;2023-02-10T10:54:14;103022.06;;;4.42;100.00
37238;BME280;23129;49.662;8.448;2023-02-10T10:56:45;103020.44;;;4.67;100.00
37238;BME280;23129;49.662;8.448;2023-02-10T10:59:20;103024.28;;;5.00;100.00
37238;BME280;23129;49.662;8.448;2023-02-10T11:01:51;103010.63;;;5.30;100.00
37238;BME280;23129;49.662;8.448;2023-02-10T11:04:23;103009.50;;;5.47;100.00
37238;BME280;23129;49.662;8.448;2023-02-10T11:06:56;103003.47;;;5.50;100.00
37238;BME280;23129;49.662;8.448;2023-02-10T11:09:29;103000.28;;;5.57;100.00
37238;BME280;23129;49.662;8.448;2023-02-10T11:12:03;102990.16;;;5.66;100.00
37238;BME280;23129;49.662;8.448;2023-02-10T11:14:39;102988.09;;;5.83;100.00
37238;BME280;23129;49.662;8.448;2023-02-10T11:17:20;102992.56;;;6.13;100.00
37238;BME280;23129;49.662;8.448;2023-02-10T11:19:59;102982.31;;;6.46;100.00
37238;BME280;23129;49.662;8.448;2023-02-10T11:22:29;102980.63;;;6.78;100.00
37238;BME280;23129;49.662;8.448;2023-02-10T11:24:59;102973.88;;;7.15;100.00
37238;BME280;23129;49.662;8.448;2023-02-10T11:27:29;102967.47;;;7.37;100.00
37238;BME280;23129;49.662;8.448;2023-02-10T11:29:59;102981.06;;;7.59;100.00
37238;BME280;23129;49.662;8.448;2023-02-10T11:32:33;102972.75;;;7.73;100.00
37238;BME280;23129;49.662;8.448;2023-02-10T11:35:05;102971.44;;;7.91;100.00
37238;BME280;23129;49.662;8.448;2023-02-10T11:37:38;102963.16;;;8.10;100.00
37238;BME280;23129;49.662;8.448;2023-02-10T11:40:18;102967.19;;;8.34;100.00
37238;BME280;23129;49.662;8.448;2023-02-10T11:42:49;102964.97;;;8.51;100.00
37238;BME280;23129;49.662;8.448;2023-02-10T11:45:22;102975.59;;;8.58;100.00
37238;BME280;23129;49.662;8.448;2023-02-10T11:48:00;102965.84;;;8.50;100.00
37238;BME280;23129;49.662;8.448;2023-02-10T11:50:32;102971.91;;;8.49;100.00
37238;BME280;23129;49.662;8.448;2023-02-10T11:53:02;102962.25;;;8.46;100.00
37238;BME280;23129;49.662;8.448;2023-02-10T11:55:41;102956.38;;;8.56;100.00
37238;BME280;23129;49.662;8.448;2023-02-10T11:58:48;102961.88;;;8.70;100.00
37238;BME280;23129;49.662;8.448;2023-02-10T12:01:47;102954.19;;;8.78;100.00
37238;BME280;23129;49.662;8.448;2023-02-10T12:04:58;102955.31;;;8.89;100.00
37238;BME280;23129;49.662;8.448;2023-02-10T12:07:44;102955.13;;;8.81;100.00
37238;BME280;23129;49.662;8.448;2023-02-10T12:10:27;102957.75;;;8.80;100.00
37238;BME280;23129;49.662;8.448;2023-02-10T12:13:01;102959.63;;;8.87;100.00
37238;BME280;23129;49.662;8.448;2023-02-10T12:15:41;102953.69;;;8.97;100.00
37238;BME280;23129;49.662;8.448;2023-02-10T12:18:35;102949.66;;;9.14;100.00
37238;BME280;23129;49.662;8.448;2023-02-10T12:21:23;102941.97;;;9.22;100.00
37238;BME280;23129;49.662;8.448;2023-02-10T12:24:06;102944.84;;;9.39;100.00
37238;BME280;23129;49.662;8.448;2023-02-10T12:26:44;102938.06;;;9.50;100.00
37238;BME280;23129;49.662;8.448;2023-02-10T12:29:24;102939.16;;;9.63;100.00
37238;BME280;23129;49.662;8.448;2023-02-10T12:32:06;102932.44;;;9.79;100.00
37238;BME280;23129;49.662;8.448;2023-02-10T12:34:57;102927.56;;;10.03;100.00
37238;BME280;23129;49.662;8.448;2023-02-10T12:37:38;102935.53;;;10.13;100.00
37238;BME280;23129;49.662;8.448;2023-02-10T12:40:45;102926.88;;;10.20;100.00
37238;BME280;23129;49.662;8.448;2023-02-10T12:43:37;102927.94;;;10.30;100.00
37238;BME280;23129;49.662;8.448;2023-02-10T12:46:19;102915.88;;;10.42;100.00
37238;BME280;23129;49.662;8.448;2023-02-10T12:49:15;102912.41;;;10.46;100.00
37238;BME280;23129;49.662;8.448;2023-02-10T12:51:57;102923.00;;;10.54;100.00
37238;BME280;23129;49.662;8.448;2023-02-10T12:54:34;102912.72;;;10.72;100.00
37238;BME280;23129;49.662;8.448;2023-02-10T12:57:16;102909.53;;;10.98;100.00
37238;BME280;23129;49.662;8.448;2023-02-10T12:59:55;102906.19;;;11.16;100.00
37238;BME280;23129;49.662;8.448;2023-02-10T13:02:32;102900.16;;;11.29;100.00
37238;BME280;23129;49.662;8.448;2023-02-10T13:05:10;102894.00;;;11.27;100.00
37238;BME280;23129;49.662;8.448;2023-02-10T13:07:45;102901.81;;;11.16;100.00
37238;BME280;23129;49.662;8.448;2023-02-10T13:10:26;102904.44;;;11.16;100.00
37238;BME280;23129;49.662;8.448;2023-02-10T13:13:01;102899.94;;;11.05;100.00
37238;BME280;23129;49.662;8.448;2023-02-10T13:15:38;102905.03;;;10.89;100.00
37238;BME280;23129;49.662;8.448;2023-02-10T13:18:18;102900.50;;;10.74;100.00